Time;durP1;ratioP1;P1;durP2;ratioP2;P2;SDS_P1;SDS_P2;PMS_P1;PMS_P2;Temp;Humidity;BMP_temperature;BMP_pressure;BME280_temperature;BME280_humidity;BME280_pressure;Samples;Min_cycle;Max_cycle;Signal;HPM_P1;HPM_P2
2022/09/19 00:00:36;;;;;;;;;1.00;1.00;;;;;14.10;63.93;100436.66;5077951;28;45483;-68
2022/09/19 00:03:02;;;;;;;;;1.67;1.67;;;;;14.25;63.92;100457.00;5078104;28;45314;-68
2022/09/19 00:05:28;;;;;;;;;2.00;2.00;;;;;14.19;64.25;100456.06;5078315;28;45464;-68
2022/09/19 00:07:54;;;;;;;;;2.67;2.00;;;;;13.95;64.43;100423.31;5078366;28;45627;-67
2022/09/19 00:10:19;;;;;;;;;3.00;2.00;;;;;14.09;64.45;100447.16;5076562;28;46662;-68
2022/09/19 00:12:45;;;;;;;;;1.00;1.00;;;;;14.09;64.32;100449.78;5078370;28;45332;-67
2022/09/19 00:15:10;;;;;;;;;2.50;2.00;;;;;14.02;64.79;100443.53;5078026;28;45309;-67
2022/09/19 00:17:36;;;;;;;;;2.00;2.00;;;;;14.08;64.36;100453.25;5078126;28;45214;-67
2022/09/19 00:20:01;;;;;;;;;2.00;0.67;;;;;14.05;64.06;100450.59;5077504;28;45465;-67
2022/09/19 00:22:27;;;;;;;;;2.00;2.00;;;;;14.10;63.91;100465.53;5077731;28;45394;-67
2022/09/19 00:24:52;;;;;;;;;1.33;1.00;;;;;14.00;64.15;100455.78;5077898;28;45482;-67
2022/09/19 00:27:26;;;;;;;;;2.00;2.00;;;;;14.08;64.34;100463.75;5078160;28;45453;-69
2022/09/19 00:29:53;;;;;;;;;2.00;2.00;;;;;14.00;64.29;100461.03;5077931;27;46349;-67
2022/09/19 00:32:21;;;;;;;;;2.33;2.00;;;;;14.03;65.07;100475.97;5077647;27;45361;-71
2022/09/19 00:34:49;;;;;;;;;3.00;3.00;;;;;13.87;65.30;100459.09;5077941;28;45510;-68
2022/09/19 00:37:20;;;;;;;;;2.00;1.00;;;;;13.90;64.65;100477.50;5078138;28;45464;-71
2022/09/19 00:39:45;;;;;;;;;1.00;1.00;;;;;13.88;65.49;100476.59;5077649;27;45554;-72
2022/09/19 00:42:20;;;;;;;;;3.00;3.00;;;;;13.84;64.78;100473.03;5075967;28;45606;-67
2022/09/19 00:44:58;;;;;;;;;3.00;2.00;;;;;13.86;64.61;100465.19;5078110;28;45409;-67
2022/09/19 00:47:33;;;;;;;;;2.33;2.00;;;;;13.88;64.77;100468.72;5077780;28;45492;-67
2022/09/19 00:50:01;;;;;;;;;2.00;2.00;;;;;13.84;64.76;100462.53;5077488;28;46690;-67
2022/09/19 00:52:37;;;;;;;;;2.00;2.00;;;;;13.72;64.93;100446.59;5077345;28;45475;-67
2022/09/19 00:55:03;;;;;;;;;1.33;1.33;;;;;13.69;64.87;100450.06;5076808;28;45413;-67
2022/09/19 00:57:44;;;;;;;;;2.67;2.67;;;;;13.65;65.13;100436.88;5077026;28;45477;-68
2022/09/19 01:00:11;;;;;;;;;1.00;1.00;;;;;13.58;65.99;100443.75;5075816;28;46359;-68
2022/09/19 01:02:36;;;;;;;;;1.00;1.00;;;;;13.65;65.88;100457.88;5077311;28;45275;-71
2022/09/19 01:05:03;;;;;;;;;2.00;2.00;;;;;13.67;65.04;100462.28;5075996;28;45270;-68
2022/09/19 01:07:43;;;;;;;;;1.00;1.00;;;;;13.69;65.48;100465.81;5077510;28;45467;-71
2022/09/19 01:10:18;;;;;;;;;1.00;1.00;;;;;13.62;65.62;100468.31;5077010;28;46518;-67
2022/09/19 01:13:09;;;;;;;;;2.00;2.00;;;;;13.43;66.95;100464.50;5077191;28;45426;-67
2022/09/19 01:15:53;;;;;;;;;2.00;2.00;;;;;13.28;67.15;100450.22;5077230;28;45165;-67
2022/09/19 01:18:26;;;;;;;;;3.00;2.33;;;;;13.29;67.21;100456.34;5077563;28;45325;-67
2022/09/19 01:22:01;;;;;;;;;3.00;3.00;;;;;13.32;67.11;100462.56;5076985;28;45335;-68
2022/09/19 01:24:44;;;;;;;;;3.00;3.00;;;;;13.27;66.65;100450.19;5068440;27;45237;-67
2022/09/19 01:27:22;;;;;;;;;3.00;2.25;;;;;13.36;66.63;100460.00;5077129;28;45495;-72
2022/09/19 01:29:53;;;;;;;;;2.00;2.00;;;;;13.30;66.69;100456.41;5076168;28;45573;-67
2022/09/19 01:32:26;;;;;;;;;2.00;2.00;;;;;13.18;67.16;100448.31;5077020;28;46040;-67
2022/09/19 01:34:57;;;;;;;;;2.00;2.00;;;;;13.10;67.40;100439.41;5076852;27;45339;-68
2022/09/19 01:37:32;;;;;;;;;2.00;2.00;;;;;13.11;67.03;100435.91;5076998;28;45454;-68
2022/09/19 01:40:01;;;;;;;;;3.50;2.00;;;;;13.13;67.86;100442.97;5077126;28;45225;-67
2022/09/19 01:42:27;;;;;;;;;3.00;2.50;;;;;13.11;67.56;100449.03;5076563;28;45559;-67
2022/09/19 01:44:53;;;;;;;;;3.00;3.00;;;;;13.07;68.78;100444.59;5076421;28;45542;-67
2022/09/19 01:47:40;;;;;;;;;2.50;2.50;;;;;13.13;68.22;100455.22;5075940;28;45333;-67
2022/09/19 01:50:14;;;;;;;;;3.00;2.67;;;;;13.14;67.99;100454.34;5076989;28;45370;-67
2022/09/19 01:52:55;;;;;;;;;2.00;2.00;;;;;13.08;67.61;100456.88;5076592;27;46017;-67
2022/09/19 01:55:27;;;;;;;;;2.75;1.75;;;;;12.97;67.05;100429.56;5076803;28;45231;-67
2022/09/19 01:58:04;;;;;;;;;2.00;2.00;;;;;13.11;66.79;100446.41;5076787;28;45282;-67
2022/09/19 02:00:31;;;;;;;;;1.00;1.00;;;;;13.11;66.94;100449.94;5076967;27;45346;-71
2022/09/19 02:03:06;;;;;;;;;2.00;2.00;;;;;13.10;67.18;100444.66;5076344;28;46041;-67
2022/09/19 02:05:51;;;;;;;;;2.00;2.00;;;;;12.89;67.08;100406.72;5076277;28;45503;-68
2022/09/19 02:08:30;;;;;;;;;3.00;2.00;;;;;12.93;67.94;100434.75;5076721;28;45393;-71
2022/09/19 02:11:03;;;;;;;;;1.25;1.25;;;;;12.89;67.54;100438.19;5080089;28;45302;-69
2022/09/19 02:13:33;;;;;;;;;3.75;3.75;;;;;12.80;68.49;100416.16;5079650;27;45670;-67
2022/09/19 02:16:12;;;;;;;;;3.00;2.50;;;;;12.82;68.73;100436.28;5079707;27;45194;-68
2022/09/19 02:18:59;;;;;;;;;3.00;3.00;;;;;12.84;68.74;100442.44;5079902;27;45436;-67
2022/09/19 02:21:36;;;;;;;;;1.00;1.00;;;;;12.78;68.45;100420.47;5079961;28;45508;-67
2022/09/19 02:24:06;;;;;;;;;2.00;2.00;;;;;12.67;68.27;100401.91;5079590;27;45523;-67
2022/09/19 02:26:33;;;;;;;;;3.00;2.67;;;;;12.91;68.07;100435.56;5095174;27;45512;-67
2022/09/19 02:29:01;;;;;;;;;2.00;2.00;;;;;12.85;67.92;100425.88;5079967;28;45887;-68
2022/09/19 02:31:27;;;;;;;;;2.00;2.00;;;;;12.70;67.94;100404.59;5079720;28;45423;-68
2022/09/19 02:33:58;;;;;;;;;1.00;1.00;;;;;12.87;67.97;100433.75;5079666;28;45435;-68
2022/09/19 02:36:41;;;;;;;;;2.00;2.00;;;;;12.77;68.45;100419.56;5079825;28;45309;-68
2022/09/19 02:39:20;;;;;;;;;1.00;1.00;;;;;12.77;68.50;100414.31;5078205;28;45447;-71
2022/09/19 02:42:20;;;;;;;;;2.00;2.00;;;;;12.82;69.02;100433.66;5079700;27;45389;-67
2022/09/19 02:45:22;;;;;;;;;2.67;2.00;;;;;12.82;68.42;100431.03;5077308;28;46251;-67
2022/09/19 02:48:05;;;;;;;;;2.00;2.00;;;;;12.82;68.42;100431.03;5060053;28;45490;-67
2022/09/19 02:50:36;;;;;;;;;2.00;2.00;;;;;12.73;68.63;100415.13;5078122;28;45370;-67
2022/09/19 02:53:07;;;;;;;;;1.67;1.67;;;;;12.72;68.77;100418.63;5079559;28;45315;-67
2022/09/19 02:55:39;;;;;;;;;2.00;2.00;;;;;12.77;69.20;100430.06;5078897;28;45511;-67
2022/09/19 02:58:05;;;;;;;;;2.00;2.00;;;;;12.63;69.21;100407.94;5079145;28;45329;-67
2022/09/19 03:00:34;;;;;;;;;1.00;1.00;;;;;12.72;70.05;100426.47;5079346;28;45317;-67
2022/09/19 03:04:11;;;;;;;;;1.00;1.00;;;;;12.56;70.42;100411.31;5079326;27;45670;-67
2022/09/19 03:05:56;;;;;;;;;1.00;1.00;;;;;12.53;70.82;100415.66;5079038;28;45928;-67
2022/09/19 03:08:26;;;;;;;;;2.00;2.00;;;;;12.44;70.46;100411.97;5079196;28;45491;-71
2022/09/19 03:10:56;;;;;;;;;3.00;2.00;;;;;12.48;71.54;100425.13;5079059;28;45503;-68
2022/09/19 03:13:24;;;;;;;;;3.00;2.00;;;;;12.46;70.94;100420.72;5079413;28;45507;-67
2022/09/19 03:15:58;;;;;;;;;2.67;2.00;;;;;12.51;71.18;100422.59;5077339;28;46573;-67
2022/09/19 03:18:27;;;;;;;;;2.00;2.00;;;;;12.30;70.89;100395.97;5078807;28;45307;-67
2022/09/19 03:20:59;;;;;;;;;2.00;2.00;;;;;12.40;71.69;100424.09;5079359;27;45451;-67
2022/09/19 03:23:35;;;;;;;;;3.00;2.25;;;;;12.38;71.85;100412.72;5079510;27;45239;-68
2022/09/19 03:26:02;;;;;;;;;10.25;10.25;;;;;12.30;71.95;100403.81;5078790;28;45636;-67
2022/09/19 03:28:28;;;;;;;;;7.00;6.50;;;;;12.35;71.44;100412.63;5077600;27;45434;-67
2022/09/19 03:30:59;;;;;;;;;4.00;3.00;;;;;12.23;71.22;100387.06;5078957;28;45510;-67
2022/09/19 03:33:26;;;;;;;;;2.67;2.00;;;;;12.36;70.71;100418.78;5079098;27;45496;-67
2022/09/19 03:35:56;;;;;;;;;2.25;1.75;;;;;12.24;70.86;100385.34;5078432;28;45957;-67
2022/09/19 03:38:22;;;;;;;;;2.00;2.00;;;;;12.27;70.38;100394.13;5078494;28;45514;-67
2022/09/19 03:40:47;;;;;;;;;3.00;2.00;;;;;12.33;70.65;100401.25;5077266;27;45544;-67
2022/09/19 03:43:13;;;;;;;;;2.67;2.00;;;;;12.34;70.97;100395.16;5078826;28;45288;-71
2022/09/19 03:45:39;;;;;;;;;1.67;1.67;;;;;12.29;71.18;100391.56;5078335;28;46437;-69
2022/09/19 03:48:04;;;;;;;;;2.67;2.33;;;;;12.32;70.88;100389.00;5078252;28;45452;-71
2022/09/19 03:50:30;;;;;;;;;2.67;2.33;;;;;12.34;70.94;100390.81;5078470;28;45405;-71
2022/09/19 03:52:58;;;;;;;;;2.33;2.00;;;;;12.29;70.39;100378.47;5079058;28;45266;-71
2022/09/19 03:55:24;;;;;;;;;2.00;2.00;;;;;12.31;70.90;100389.84;5078267;28;45476;-68
2022/09/19 03:57:50;;;;;;;;;1.67;1.00;;;;;12.30;71.06;100393.34;5078098;27;45241;-70
2022/09/19 04:00:16;;;;;;;;;1.33;1.00;;;;;12.23;71.87;100386.19;5078131;28;45198;-68
2022/09/19 04:02:42;;;;;;;;;2.33;2.00;;;;;12.36;71.56;100405.69;5078526;27;45475;-68
2022/09/19 04:05:08;;;;;;;;;2.00;2.00;;;;;12.16;72.20;100379.97;5076664;28;47822;-68
2022/09/19 04:07:38;;;;;;;;;1.33;1.33;;;;;12.14;71.84;100387.78;5078133;28;45513;-68
2022/09/19 04:10:05;;;;;;;;;3.00;2.00;;;;;12.10;72.20;100401.66;5078149;27;45298;-67
2022/09/19 04:12:33;;;;;;;;;2.50;2.50;;;;;11.92;71.90;100396.03;5078346;27;45338;-68
2022/09/19 04:14:59;;;;;;;;;3.00;2.00;;;;;11.82;72.00;100389.66;5077941;28;46623;-67
2022/09/19 04:17:27;;;;;;;;;1.00;1.00;;;;;11.77;72.34;100388.66;5076886;28;45481;-67
2022/09/19 04:19:53;;;;;;;;;3.00;2.00;;;;;11.85;72.66;100404.56;5078080;27;45299;-67
2022/09/19 04:22:20;;;;;;;;;3.00;3.00;;;;;11.92;73.35;100411.75;5076822;28;45401;-68
2022/09/19 04:24:46;;;;;;;;;1.00;1.00;;;;;11.78;72.89;100386.94;5077688;28;45981;-67
2022/09/19 04:27:12;;;;;;;;;3.25;3.00;;;;;11.72;73.50;100385.97;5076292;28;45438;-67
2022/09/19 04:29:38;;;;;;;;;2.25;2.00;;;;;11.80;73.73;100396.59;5077528;28;45423;-67
2022/09/19 04:32:04;;;;;;;;;3.00;2.00;;;;;11.95;73.12;100417.03;5077326;28;46048;-67
2022/09/19 04:34:30;;;;;;;;;1.00;0.33;;;;;11.81;72.45;100394.88;5077890;27;45374;-67
2022/09/19 04:36:57;;;;;;;;;2.33;2.33;;;;;11.94;72.08;100418.75;5076415;28;45541;-68
2022/09/19 04:39:25;;;;;;;;;2.00;2.00;;;;;11.89;72.32;100412.53;5076387;28;45546;-68
2022/09/19 04:41:52;;;;;;;;;3.00;2.00;;;;;11.86;72.43;100401.97;5077838;28;45179;-68
2022/09/19 04:44:21;;;;;;;;;3.00;2.00;;;;;11.85;72.52;100404.56;5077426;28;46052;-67
2022/09/19 04:46:49;;;;;;;;;2.50;2.50;;;;;11.85;72.64;100394.06;5076118;28;45364;-67
2022/09/19 04:49:16;;;;;;;;;3.00;3.00;;;;;11.96;72.57;100417.91;5077538;28;45196;-68
2022/09/19 04:51:41;;;;;;;;;4.00;3.00;;;;;11.96;72.23;100413.56;5077696;28;45453;-67
2022/09/19 04:54:08;;;;;;;;;2.00;2.00;;;;;11.97;72.08;100415.31;5077500;28;46188;-67
2022/09/19 04:56:34;;;;;;;;;2.00;2.00;;;;;11.85;71.79;100396.69;5077250;28;45564;-67
2022/09/19 04:59:00;;;;;;;;;2.00;2.00;;;;;11.93;71.65;100411.75;5077748;28;45446;-67
2022/09/19 05:01:26;;;;;;;;;2.00;1.00;;;;;11.89;71.74;100401.19;5077682;28;45269;-67
2022/09/19 05:03:52;;;;;;;;;2.00;1.00;;;;;11.94;71.44;100415.28;5077275;28;45433;-67
2022/09/19 05:06:18;;;;;;;;;2.00;1.75;;;;;11.84;71.70;100394.94;5075914;28;45534;-67
2022/09/19 05:08:44;;;;;;;;;3.00;2.00;;;;;11.94;71.61;100425.75;5077167;28;45504;-67
2022/09/19 05:11:10;;;;;;;;;2.00;2.00;;;;;11.82;71.98;100397.53;5077422;28;45476;-67
2022/09/19 05:13:38;;;;;;;;;1.00;1.00;;;;;11.89;72.54;100415.16;5077008;28;45647;-67
2022/09/19 05:16:05;;;;;;;;;2.67;2.33;;;;;11.76;72.89;100407.84;5077244;28;45339;-69
2022/09/19 05:18:37;;;;;;;;;2.00;2.00;;;;;11.82;72.92;100417.59;5077544;28;45429;-67
2022/09/19 05:21:09;;;;;;;;;4.00;2.00;;;;;11.86;72.61;100416.81;5077734;28;45487;-68
2022/09/19 05:23:36;;;;;;;;;3.00;3.00;;;;;11.84;73.01;100418.50;5076723;28;45642;-67
2022/09/19 05:26:07;;;;;;;;;4.00;4.00;;;;;11.81;73.02;100413.19;5077170;28;45660;-67
2022/09/19 05:28:33;;;;;;;;;3.50;3.50;;;;;11.77;73.02;100407.00;5077233;28;45441;-68
2022/09/19 05:31:04;;;;;;;;;6.00;5.00;;;;;11.81;72.91;100411.44;5076889;28;45501;-68
2022/09/19 05:33:30;;;;;;;;;6.50;6.00;;;;;11.72;72.56;100404.28;5076890;28;45408;-67
2022/09/19 05:35:59;;;;;;;;;4.75;4.75;;;;;11.74;72.42;100410.44;5076826;27;45335;-67
2022/09/19 05:38:24;;;;;;;;;4.00;3.00;;;;;11.79;72.19;100417.50;5076835;27;45226;-69
2022/09/19 05:40:52;;;;;;;;;3.50;2.00;;;;;11.80;72.00;100416.63;5077150;27;45187;-68
2022/09/19 05:43:17;;;;;;;;;3.50;3.50;;;;;11.68;71.96;100407.66;5079691;28;46145;-68
2022/09/19 05:45:44;;;;;;;;;3.00;3.00;;;;;11.85;72.32;100434.22;5080077;27;45487;-71
2022/09/19 05:48:09;;;;;;;;;2.00;2.00;;;;;11.78;72.11;100424.47;5080490;28;45412;-68
2022/09/19 05:50:35;;;;;;;;;3.00;3.00;;;;;11.71;72.47;100431.28;5080677;28;45338;-67
2022/09/19 05:55:45;;;;;;;;;2.50;2.50;;;;;11.51;72.50;100404.66;5080047;28;45231;-69
2022/09/19 05:58:13;;;;;;;;;4.00;3.50;;;;;11.81;72.26;100441.97;5080210;27;45476;-71
2022/09/19 06:00:39;;;;;;;;;4.75;3.50;;;;;11.81;72.01;100445.47;5080262;27;45349;-70
2022/09/19 06:03:06;;;;;;;;;4.00;2.00;;;;;11.82;71.82;100447.25;5080216;28;45431;-67
2022/09/19 06:05:40;;;;;;;;;2.67;2.67;;;;;11.90;71.73;100450.09;5080340;27;45417;-68
2022/09/19 06:08:07;;;;;;;;;3.00;3.00;;;;;11.92;71.72;100461.47;5080239;28;45275;-67
2022/09/19 06:10:35;;;;;;;;;5.00;4.50;;;;;11.89;71.85;100462.25;5080430;28;45389;-68
2022/09/19 06:13:01;;;;;;;;;5.50;4.00;;;;;11.92;71.61;100469.31;5079749;27;45559;-67
2022/09/19 06:15:27;;;;;;;;;4.00;4.00;;;;;11.91;71.73;100459.69;5079874;28;45821;-67
2022/09/19 06:17:56;;;;;;;;;6.00;6.00;;;;;11.90;71.22;100452.69;5079701;28;45226;-67
2022/09/19 06:20:21;;;;;;;;;4.00;4.00;;;;;12.00;71.75;100451.19;5080140;28;45505;-68
2022/09/19 06:22:47;;;;;;;;;3.00;3.00;;;;;12.11;71.38;100466.25;5079484;28;45518;-68
2022/09/19 06:25:13;;;;;;;;;3.00;2.50;;;;;12.21;70.85;100476.94;5079568;28;45547;-67
2022/09/19 06:27:42;;;;;;;;;2.00;2.00;;;;;12.23;70.67;100475.25;5079815;28;45456;-67
2022/09/19 06:30:08;;;;;;;;;5.00;3.33;;;;;12.19;70.90;100462.94;5079788;28;45351;-67
2022/09/19 06:32:33;;;;;;;;;5.67;4.00;;;;;12.29;70.97;100464.91;5079340;28;46067;-67
2022/09/19 06:34:59;;;;;;;;;6.50;6.50;;;;;12.38;71.20;100465.09;5079457;28;45492;-67
2022/09/19 06:37:25;;;;;;;;;5.00;5.00;;;;;12.31;71.30;100461.47;5079591;28;45211;-67
2022/09/19 06:39:51;;;;;;;;;5.50;5.50;;;;;12.38;71.14;100465.09;5079656;27;45500;-67
2022/09/19 06:42:16;;;;;;;;;3.00;3.00;;;;;12.45;71.06;100460.88;5079161;28;45449;-67
2022/09/19 06:44:42;;;;;;;;;4.00;3.00;;;;;12.59;70.95;100463.78;5079153;27;45487;-68
2022/09/19 06:47:07;;;;;;;;;4.33;3.00;;;;;12.69;70.24;100465.72;5079695;28;45385;-67
2022/09/19 06:49:33;;;;;;;;;5.00;5.00;;;;;12.80;69.94;100472.06;5079344;27;45413;-67
2022/09/19 06:51:59;;;;;;;;;2.25;2.25;;;;;12.93;69.30;100471.47;5078880;28;45485;-67
2022/09/19 06:54:24;;;;;;;;;4.00;3.50;;;;;13.04;69.00;100457.66;5078150;28;45320;-67
2022/09/19 06:56:51;;;;;;;;;4.00;3.00;;;;;15.27;66.45;100481.88;5079380;28;45474;-67
2022/09/19 06:59:18;;;;;;;;;3.67;3.00;;;;;18.53;57.27;100468.88;5079557;28;45380;-67
2022/09/19 07:01:45;;;;;;;;;4.00;3.33;;;;;20.95;47.82;100465.94;5079037;27;45300;-67
2022/09/19 07:04:11;;;;;;;;;6.00;5.33;;;;;22.52;43.46;100441.09;5079003;28;45206;-68
2022/09/19 07:06:37;;;;;;;;;6.33;4.67;;;;;23.77;42.05;100472.00;5079281;28;45385;-68
2022/09/19 07:09:04;;;;;;;;;8.67;6.00;;;;;24.88;38.83;100462.72;5079228;28;45267;-71
2022/09/19 07:11:30;;;;;;;;;7.33;7.00;;;;;25.82;36.65;100475.75;5079005;27;45479;-68
2022/09/19 07:13:55;;;;;;;;;14.67;14.67;;;;;25.65;37.42;100468.31;5078616;28;45465;-68
2022/09/19 07:16:21;;;;;;;;;6.67;5.00;;;;;26.29;37.26;100463.41;5078369;28;45614;-68
2022/09/19 07:18:46;;;;;;;;;7.00;5.00;;;;;27.34;35.20;100451.38;5078624;28;45251;-68
2022/09/19 07:21:12;;;;;;;;;4.00;4.00;;;;;28.19;33.86;100456.69;5078605;28;45701;-68
2022/09/19 07:23:37;;;;;;;;;2.00;2.00;;;;;29.07;32.04;100455.38;5078962;28;45484;-68
2022/09/19 07:26:03;;;;;;;;;3.00;3.00;;;;;29.77;30.21;100471.72;5078772;28;45671;-68
2022/09/19 07:28:30;;;;;;;;;1.00;1.00;;;;;30.46;29.17;100460.00;5078794;28;45412;-68
2022/09/19 07:30:58;;;;;;;;;1.00;1.00;;;;;31.14;28.76;100476.03;5078176;27;45708;-68
2022/09/19 07:33:24;;;;;;;;;2.00;1.00;;;;;31.24;27.79;100473.69;5078339;28;45461;-71
2022/09/19 07:35:53;;;;;;;;;3.00;2.00;;;;;31.73;27.75;100480.75;5078391;27;45419;-68
2022/09/19 07:38:21;;;;;;;;;2.00;1.33;;;;;32.01;26.86;100475.47;5078358;27;45250;-69
2022/09/19 07:40:47;;;;;;;;;2.67;2.67;;;;;32.37;26.17;100478.69;5078271;28;46268;-68
2022/09/19 07:43:14;;;;;;;;;2.00;2.00;;;;;33.23;25.60;100482.25;5078341;27;45431;-69
2022/09/19 07:45:49;;;;;;;;;2.00;2.00;;;;;33.66;25.39;100494.78;5078814;27;45458;-72
2022/09/19 07:48:16;;;;;;;;;2.00;2.00;;;;;34.18;24.56;100491.25;5078580;27;45490;-69
2022/09/19 07:50:43;;;;;;;;;2.00;2.00;;;;;33.99;25.05;100490.75;5078553;27;45423;-69
2022/09/19 07:53:14;;;;;;;;;2.00;2.00;;;;;34.56;24.01;100478.63;5078645;28;45274;-69
2022/09/19 07:55:43;;;;;;;;;2.33;2.00;;;;;34.40;24.29;100490.59;5078415;28;45360;-69
2022/09/19 07:58:11;;;;;;;;;3.00;2.00;;;;;35.35;23.77;100488.25;5078678;28;45526;-69
2022/09/19 08:00:39;;;;;;;;;1.33;1.00;;;;;36.08;23.01;100494.50;5077909;27;45467;-70
2022/09/19 08:03:16;;;;;;;;;3.00;3.00;;;;;36.48;23.00;100487.81;5078076;28;45342;-71
2022/09/19 08:05:44;;;;;;;;;4.33;2.67;;;;;36.48;21.94;100496.81;5078394;28;45535;-73
2022/09/19 08:08:11;;;;;;;;;2.00;1.67;;;;;36.51;22.38;100487.53;5078393;28;45298;-72
2022/09/19 08:10:39;;;;;;;;;4.67;4.00;;;;;36.29;21.94;100488.41;5077864;28;45458;-72
2022/09/19 08:13:06;;;;;;;;;2.33;1.00;;;;;36.72;22.80;100504.03;5077915;27;45579;-70
2022/09/19 08:15:34;;;;;;;;;0.67;0.67;;;;;37.65;21.38;100503.66;5076359;28;45430;-72
2022/09/19 08:18:03;;;;;;;;;1.67;1.67;;;;;37.92;20.80;100510.47;5078080;27;45555;-71
2022/09/19 08:20:31;;;;;;;;;1.67;1.67;;;;;37.70;21.21;100516.91;5077588;28;45933;-72
2022/09/19 08:22:58;;;;;;;;;2.33;1.67;;;;;37.63;21.05;100507.53;5077634;28;45484;-71
2022/09/19 08:25:25;;;;;;;;;3.00;1.67;;;;;37.61;20.80;100513.97;5077839;28;45348;-71
2022/09/19 08:27:51;;;;;;;;;2.67;2.67;;;;;37.21;21.83;100509.09;5077923;28;45532;-70
2022/09/19 08:30:20;;;;;;;;;3.33;2.67;;;;;37.39;22.06;100509.41;5077186;28;46021;-71
2022/09/19 08:32:49;;;;;;;;;3.00;2.67;;;;;37.63;21.12;100508.38;5077503;28;45409;-70
2022/09/19 08:35:20;;;;;;;;;4.00;3.00;;;;;37.87;21.26;100515.47;5077302;28;45294;-70
2022/09/19 08:37:52;;;;;;;;;2.67;1.67;;;;;38.47;20.33;100513.88;5077500;27;45503;-70
2022/09/19 08:40:30;;;;;;;;;2.67;2.67;;;;;38.71;19.71;100516.31;5076988;28;45504;-70
2022/09/19 08:43:05;;;;;;;;;4.00;2.33;;;;;39.02;20.52;100527.25;5077367;27;45511;-70
2022/09/19 08:45:33;;;;;;;;;2.00;2.00;;;;;39.15;20.97;100524.25;5077293;28;45464;-71
2022/09/19 08:48:03;;;;;;;;;2.00;1.67;;;;;38.58;20.84;100480.22;5077078;28;45455;-71
2022/09/19 08:50:34;;;;;;;;;2.33;2.33;;;;;38.66;21.43;100528.66;5076877;28;45495;-71
2022/09/19 08:53:04;;;;;;;;;2.67;2.00;;;;;39.06;20.96;100533.28;5076858;28;45247;-71
2022/09/19 08:55:34;;;;;;;;;2.33;2.00;;;;;39.22;20.22;100527.28;5076319;27;45569;-71
2022/09/19 08:58:04;;;;;;;;;4.33;3.67;;;;;38.85;19.63;100520.53;5076766;28;45541;-70
2022/09/19 09:00:39;;;;;;;;;2.33;1.67;;;;;38.43;19.89;100514.28;5076649;27;46207;-70
2022/09/19 09:03:11;;;;;;;;;1.67;1.67;;;;;38.42;20.55;100529.81;5076873;28;45364;-70
2022/09/19 09:05:55;;;;;;;;;3.00;2.67;;;;;37.50;21.95;100532.16;5077426;27;45413;-71
2022/09/19 09:08:51;;;;;;;;;1.67;1.00;;;;;36.93;22.46;100532.25;5076900;27;45508;-71
2022/09/19 09:11:23;;;;;;;;;2.00;2.00;;;;;36.60;23.18;100533.94;5076736;27;45464;-71
2022/09/19 09:14:03;;;;;;;;;2.67;1.67;;;;;36.72;22.79;100523.09;5076508;27;45415;-72
2022/09/19 09:16:57;;;;;;;;;3.00;2.00;;;;;36.65;23.03;100532.72;5077400;28;45506;-73
2022/09/19 09:20:00;;;;;;;;;5.00;4.33;;;;;36.50;23.44;100530.22;5080721;28;45608;-72
2022/09/19 09:22:31;;;;;;;;;5.00;4.67;;;;;36.57;23.33;100533.31;5080122;27;45394;-71
2022/09/19 09:25:14;;;;;;;;;4.00;4.00;;;;;36.49;23.13;100533.06;5080334;28;45341;-72
2022/09/19 09:28:07;;;;;;;;;7.67;7.00;;;;;36.35;23.58;100534.16;5080247;28;45318;-71
2022/09/19 09:30:39;;;;;;;;;14.33;12.00;;;;;36.36;24.22;100538.63;5077929;28;45447;-71
2022/09/19 09:33:21;;;;;;;;;17.33;17.33;;;;;36.31;23.43;100532.66;5079786;28;46137;-71
2022/09/19 09:36:01;;;;;;;;;28.67;26.33;;;;;36.48;23.24;100518.59;5080090;27;45334;-71
2022/09/19 09:38:45;;;;;;;;;31.33;28.67;;;;;36.79;23.17;100535.25;5080235;28;45465;-71
2022/09/19 09:44:20;;;;;;;;;8.67;8.33;;;;;36.97;22.84;100532.88;5070462;27;45957;-71
2022/09/19 09:46:48;;;;;;;;;6.00;6.00;;;;;36.68;22.47;100524.34;5080087;28;45330;-71
2022/09/19 09:49:14;;;;;;;;;8.33;8.33;;;;;36.57;23.90;100525.16;5080114;28;45298;-71
2022/09/19 09:52:04;;;;;;;;;7.00;7.00;;;;;36.92;23.19;100524.22;5080209;27;45455;-71
2022/09/19 09:57:47;;;;;;;;;2.33;1.67;;;;;37.03;21.94;100518.75;5079458;28;45369;-71
2022/09/19 10:03:35;;;;;;;;;1.67;1.67;;;;;37.36;20.13;100516.97;5079811;28;45222;-72
2022/09/19 10:06:15;;;;;;;;;2.67;2.00;;;;;37.35;19.75;100520.72;5079606;28;45306;-71
2022/09/19 10:09:02;;;;;;;;;1.67;1.67;;;;;36.99;20.64;100512.69;5079430;28;45792;-71
2022/09/19 10:11:31;;;;;;;;;0.00;0.00;;;;;37.06;20.99;100525.81;5079376;28;45417;-72
2022/09/19 10:14:04;;;;;;;;;1.67;1.67;;;;;36.90;21.48;100509.84;5079714;28;45329;-72
2022/09/19 10:16:32;;;;;;;;;1.67;1.67;;;;;36.37;21.96;100529.44;5079032;28;45546;-71
2022/09/19 10:19:08;;;;;;;;;1.67;1.00;;;;;35.91;22.33;100517.56;5079038;28;45348;-72
2022/09/19 10:21:35;;;;;;;;;1.67;0.67;;;;;35.69;23.45;100507.47;5079042;28;45472;-71
2022/09/19 10:24:00;;;;;;;;;1.67;1.67;;;;;35.59;22.89;100512.69;5079573;28;45421;-71
2022/09/19 10:26:28;;;;;;;;;0.67;0.67;;;;;35.39;23.40;100502.47;5077795;28;45790;-71
2022/09/19 10:29:02;;;;;;;;;1.67;1.67;;;;;34.94;23.70;100500.31;5077913;27;45343;-71
2022/09/19 10:31:39;;;;;;;;;0.00;0.00;;;;;34.74;24.18;100501.78;5079405;27;45296;-70
2022/09/19 10:34:24;;;;;;;;;1.00;1.00;;;;;34.42;24.32;100499.50;5079258;27;45334;-72
2022/09/19 10:36:49;;;;;;;;;2.00;1.67;;;;;34.27;24.45;100492.44;5079449;27;45395;-71
2022/09/19 10:39:17;;;;;;;;;2.00;1.67;;;;;34.21;25.50;100501.84;5079115;28;45313;-71
2022/09/19 10:41:43;;;;;;;;;1.67;1.67;;;;;33.90;24.35;100475.97;5079419;27;45429;-73
2022/09/19 10:44:26;;;;;;;;;1.67;1.67;;;;;33.50;23.79;100503.03;5078173;28;45479;-71
2022/09/19 10:47:02;;;;;;;;;2.33;1.33;;;;;32.72;24.55;100486.47;5079128;27;45633;-70
2022/09/19 10:49:44;;;;;;;;;1.00;1.00;;;;;32.17;24.01;100504.25;5079000;27;45310;-71
2022/09/19 10:52:13;;;;;;;;;0.33;0.00;;;;;31.83;24.39;100503.56;5079054;27;45513;-70
2022/09/19 10:54:43;;;;;;;;;1.33;1.33;;;;;31.46;26.12;100503.91;5079396;28;45488;-70
2022/09/19 10:57:40;;;;;;;;;1.00;1.00;;;;;30.78;27.33;100487.00;5077125;28;46360;-70
2022/09/19 11:00:20;;;;;;;;;2.00;2.00;;;;;30.44;28.22;100503.22;5078321;28;45524;-70
2022/09/19 11:03:05;;;;;;;;;1.00;1.00;;;;;30.23;29.40;100499.78;5078571;28;45446;-70
2022/09/19 11:05:34;;;;;;;;;2.00;1.67;;;;;29.96;30.14;100510.19;5079178;28;45504;-71
2022/09/19 11:08:00;;;;;;;;;3.00;2.00;;;;;29.66;30.41;100496.44;5078592;27;45487;-70
2022/09/19 11:10:37;;;;;;;;;4.00;3.00;;;;;29.34;30.71;100504.28;5078243;28;45371;-71
2022/09/19 11:13:20;;;;;;;;;2.00;2.00;;;;;28.50;32.22;100425.75;5078771;28;45261;-70
2022/09/19 11:16:05;;;;;;;;;3.00;2.67;;;;;28.83;31.85;100493.25;5078602;28;45529;-71
2022/09/19 11:18:40;;;;;;;;;2.33;2.33;;;;;28.82;30.79;100486.09;5078404;28;46496;-71
2022/09/19 11:21:30;;;;;;;;;1.33;1.33;;;;;28.76;32.53;100479.19;5077922;28;45356;-72
2022/09/19 11:24:13;;;;;;;;;2.00;2.00;;;;;28.99;32.73;100493.38;5078665;28;45262;-70
2022/09/19 11:27:09;;;;;;;;;3.00;2.33;;;;;29.06;33.59;100491.25;5078829;27;45207;-71
2022/09/19 11:29:49;;;;;;;;;3.00;3.00;;;;;28.87;33.89;100488.56;5078121;28;45661;-71
2022/09/19 11:32:35;;;;;;;;;2.67;2.67;;;;;28.92;33.90;100491.94;5078271;27;45535;-70
2022/09/19 11:35:23;;;;;;;;;3.00;2.33;;;;;28.80;33.59;100485.31;5078418;27;45381;-73
2022/09/19 11:38:05;;;;;;;;;2.00;2.00;;;;;28.85;33.51;100488.66;5078687;28;45375;-71
2022/09/19 11:41:00;;;;;;;;;2.00;2.00;;;;;28.86;34.06;100478.78;5076406;28;45742;-70
2022/09/19 11:43:44;;;;;;;;;3.00;2.00;;;;;28.93;32.59;100488.31;5076996;28;45555;-70
2022/09/19 11:46:19;;;;;;;;;3.00;2.00;;;;;28.69;31.01;100480.44;5077836;27;45373;-70
2022/09/19 11:49:23;;;;;;;;;2.00;2.00;;;;;28.43;31.23;100481.63;5076761;28;45428;-70
2022/09/19 11:52:26;;;;;;;;;2.00;2.00;;;;;27.86;30.39;100478.69;5078033;27;45453;-70
2022/09/19 11:55:00;;;;;;;;;2.00;2.00;;;;;27.51;31.58;100480.19;5076291;27;45424;-71
2022/09/19 11:57:39;;;;;;;;;4.00;3.67;;;;;27.43;31.16;100485.84;5077903;28;45467;-70